createdAt,value
2022-07-26T00:00:06.720Z,0.95
2022-07-26T00:02:33.366Z,1.00
2022-07-26T00:05:00.019Z,0.90
2022-07-26T00:07:26.535Z,1.20
2022-07-26T00:10:02.862Z,0.90
2022-07-26T00:12:29.470Z,1.17
2022-07-26T00:14:55.980Z,0.82
2022-07-26T00:17:22.623Z,0.80
2022-07-26T00:19:49.460Z,1.23
2022-07-26T00:22:34.472Z,1.15
2022-07-26T00:25:05.186Z,1.10
2022-07-26T00:27:32.486Z,0.98
2022-07-26T00:29:59.082Z,0.90
2022-07-26T00:32:25.723Z,1.10
2022-07-26T00:34:52.353Z,1.13
2022-07-26T00:37:20.525Z,0.90
2022-07-26T00:39:47.661Z,1.40
2022-07-26T00:42:14.744Z,1.10
2022-07-26T00:44:42.162Z,1.13
2022-07-26T00:47:08.813Z,1.27
2022-07-26T00:49:35.648Z,1.30
2022-07-26T00:52:04.372Z,1.35
2022-07-26T00:54:31.130Z,1.40
2022-07-26T00:56:58.341Z,1.20
2022-07-26T00:59:25.009Z,1.38
2022-07-26T01:01:51.668Z,0.93
2022-07-26T01:04:18.278Z,1.35
2022-07-26T01:06:44.817Z,1.10
2022-07-26T01:09:11.762Z,1.30
2022-07-26T01:11:38.295Z,1.35
2022-07-26T01:14:05.392Z,1.23
2022-07-26T01:16:32.223Z,1.20
2022-07-26T01:18:58.769Z,1.38
2022-07-26T01:21:32.071Z,1.17
2022-07-26T01:23:58.576Z,1.27
2022-07-26T01:26:25.697Z,1.20
2022-07-26T01:28:52.611Z,1.75
2022-07-26T01:31:19.434Z,1.20
2022-07-26T01:33:46.203Z,1.13
2022-07-26T01:36:12.825Z,1.48
2022-07-26T01:38:40.057Z,1.23
2022-07-26T01:41:06.852Z,1.50
2022-07-26T01:43:33.420Z,1.38
2022-07-26T01:46:00.002Z,1.30
2022-07-26T01:48:26.672Z,1.33
2022-07-26T01:50:53.208Z,1.10
2022-07-26T01:53:19.786Z,1.40
2022-07-26T01:55:46.369Z,1.33
2022-07-26T01:58:12.935Z,1.63
2022-07-26T02:00:39.466Z,1.40
2022-07-26T02:03:06.211Z,1.30
2022-07-26T02:05:32.767Z,1.77
2022-07-26T02:07:59.380Z,1.63
2022-07-26T02:10:46.775Z,1.30
2022-07-26T02:13:14.426Z,1.35
2022-07-26T02:15:41.371Z,1.50
2022-07-26T02:18:08.020Z,1.33
2022-07-26T02:20:34.608Z,1.48
2022-07-26T02:23:01.784Z,1.30
2022-07-26T02:25:28.352Z,1.45
2022-07-26T02:27:54.924Z,1.20
2022-07-26T02:30:21.452Z,1.60
2022-07-26T02:32:47.984Z,1.80
2022-07-26T02:35:14.592Z,1.17
2022-07-26T02:37:43.490Z,1.50
2022-07-26T02:40:14.242Z,1.42
2022-07-26T02:42:43.542Z,1.27
2022-07-26T02:45:10.887Z,1.85
2022-07-26T02:47:45.093Z,1.75
2022-07-26T02:50:11.606Z,1.58
2022-07-26T02:52:38.109Z,1.85
2022-07-26T02:55:04.929Z,1.50
2022-07-26T02:57:31.546Z,1.60
2022-07-26T03:00:13.115Z,1.70
2022-07-26T03:02:40.016Z,1.60
2022-07-26T03:05:07.100Z,1.60
2022-07-26T03:07:33.927Z,1.98
2022-07-26T03:10:00.852Z,1.77
2022-07-26T03:12:27.349Z,1.70
2022-07-26T03:14:53.936Z,1.77
2022-07-26T03:17:20.459Z,1.77
2022-07-26T03:19:46.974Z,1.77
2022-07-26T03:22:13.934Z,1.52
2022-07-26T03:24:40.502Z,1.70
2022-07-26T03:27:07.017Z,2.08
2022-07-26T03:29:34.082Z,1.77
2022-07-26T03:32:00.663Z,1.92
2022-07-26T03:34:27.199Z,1.48
2022-07-26T03:36:57.454Z,1.95
2022-07-26T03:39:25.828Z,1.85
2022-07-26T03:41:52.715Z,2.38
2022-07-26T03:44:20.933Z,2.45
2022-07-26T03:46:48.425Z,2.20
2022-07-26T03:49:17.448Z,1.85
2022-07-26T03:51:45.036Z,2.03
2022-07-26T03:54:13.111Z,2.53
2022-07-26T03:56:41.283Z,1.70
2022-07-26T03:59:10.230Z,1.90
2022-07-26T04:01:43.821Z,2.10
2022-07-26T04:04:11.794Z,2.08
2022-07-26T04:06:39.479Z,1.88
2022-07-26T04:09:13.921Z,2.25
2022-07-26T04:11:40.828Z,2.22
2022-07-26T04:14:08.429Z,2.45
2022-07-26T04:16:41.382Z,2.25
2022-07-26T04:19:10.335Z,2.47
2022-07-26T04:21:39.466Z,1.80
2022-07-26T04:24:09.469Z,2.53
2022-07-26T04:26:36.504Z,2.22
2022-07-26T04:29:06.295Z,1.70
2022-07-26T04:31:36.531Z,2.80
2022-07-26T04:34:07.198Z,2.10
2022-07-26T04:36:34.276Z,2.40
2022-07-26T04:39:02.392Z,2.25
2022-07-26T04:41:30.031Z,2.53
2022-07-26T04:43:59.253Z,2.70
2022-07-26T04:46:28.767Z,2.20
2022-07-26T04:48:56.877Z,2.38
2022-07-26T04:51:23.801Z,3.13
2022-07-26T04:53:53.074Z,3.08
2022-07-26T04:56:20.885Z,3.03
2022-07-26T04:58:47.620Z,2.65
2022-07-26T05:01:14.731Z,2.30
2022-07-26T05:03:42.675Z,2.42
2022-07-26T05:06:09.525Z,2.90
2022-07-26T05:08:36.399Z,2.72
2022-07-26T05:11:04.391Z,2.30
2022-07-26T05:13:33.203Z,3.33
2022-07-26T05:16:11.865Z,2.83
2022-07-26T05:18:46.051Z,2.47
2022-07-26T05:21:15.715Z,2.90
2022-07-26T05:23:44.507Z,2.60
2022-07-26T05:26:14.719Z,2.60
2022-07-26T05:28:42.948Z,2.92
2022-07-26T05:31:09.767Z,2.13
2022-07-26T05:33:36.710Z,2.85
2022-07-26T05:36:03.718Z,2.95
2022-07-26T05:38:30.402Z,2.60
2022-07-26T05:40:57.656Z,3.03
2022-07-26T05:43:24.189Z,3.33
2022-07-26T05:45:51.903Z,2.63
2022-07-26T05:48:18.614Z,2.92
2022-07-26T05:50:47.125Z,3.13
2022-07-26T05:53:17.057Z,3.40
2022-07-26T05:55:43.521Z,3.33
2022-07-26T05:58:10.068Z,2.80
2022-07-26T06:00:43.176Z,3.22
2022-07-26T06:03:31.567Z,2.97
2022-07-26T06:06:01.769Z,3.00
2022-07-26T06:08:31.539Z,3.28
2022-07-26T06:10:58.332Z,2.75
2022-07-26T06:13:31.892Z,2.88
2022-07-26T06:15:58.788Z,2.88
2022-07-26T06:18:26.894Z,3.20
2022-07-26T06:20:53.891Z,3.22
2022-07-26T06:23:34.624Z,3.30
2022-07-26T06:26:03.905Z,3.55
2022-07-26T06:28:34.548Z,3.53
2022-07-26T06:31:01.628Z,3.40
2022-07-26T06:33:28.317Z,3.45
2022-07-26T06:35:55.887Z,3.83
2022-07-26T06:38:22.466Z,3.80
2022-07-26T06:40:48.996Z,3.45
2022-07-26T06:43:17.506Z,3.05
2022-07-26T06:45:44.259Z,3.40
2022-07-26T06:48:11.029Z,3.10
2022-07-26T06:50:37.750Z,3.88
2022-07-26T06:53:04.455Z,3.38
2022-07-26T06:55:32.041Z,3.83
2022-07-26T06:57:58.827Z,3.88
2022-07-26T07:00:25.822Z,3.70
2022-07-26T07:02:53.194Z,4.18
2022-07-26T07:05:22.620Z,3.60
2022-07-26T07:07:49.325Z,3.65
2022-07-26T07:10:19.185Z,4.28
2022-07-26T07:12:51.436Z,4.43
2022-07-26T07:15:32.418Z,4.22
2022-07-26T07:17:59.468Z,3.78
2022-07-26T07:20:32.928Z,4.40
2022-07-26T07:23:01.771Z,4.20
2022-07-26T07:25:30.831Z,4.10
2022-07-26T07:27:57.932Z,4.10
2022-07-26T07:30:24.516Z,3.92
2022-07-26T07:32:59.488Z,5.38
2022-07-26T07:35:31.565Z,3.97
2022-07-26T07:38:00.066Z,4.72
2022-07-26T07:40:30.066Z,4.47
2022-07-26T07:42:59.688Z,4.25
2022-07-26T07:45:26.635Z,4.63
2022-07-26T07:47:53.291Z,4.15
2022-07-26T07:50:27.133Z,3.95
2022-07-26T07:52:55.368Z,4.35
2022-07-26T07:55:40.713Z,5.03
2022-07-26T07:58:10.267Z,3.85
2022-07-26T08:00:41.935Z,4.68
2022-07-26T08:03:08.681Z,3.95
2022-07-26T08:05:35.749Z,4.22
2022-07-26T08:08:10.446Z,4.28
2022-07-26T08:10:43.633Z,4.88
2022-07-26T08:13:21.442Z,4.63
2022-07-26T08:15:49.553Z,5.10
2022-07-26T08:18:16.644Z,4.57
2022-07-26T08:20:43.691Z,4.40
2022-07-26T08:23:10.637Z,4.60
2022-07-26T08:25:50.153Z,4.40
2022-07-26T08:28:45.254Z,4.18
2022-07-26T08:31:09.784Z,4.28
2022-07-26T08:33:36.455Z,4.80
2022-07-26T08:36:10.877Z,4.78
2022-07-26T08:38:38.784Z,4.88
2022-07-26T08:41:09.734Z,5.13
2022-07-26T08:43:52.133Z,5.38
2022-07-26T08:46:27.388Z,4.65
2022-07-26T08:49:05.040Z,4.75
2022-07-26T08:51:33.417Z,5.03
2022-07-26T08:54:05.844Z,3.97
2022-07-26T08:56:34.308Z,5.00
2022-07-26T08:59:19.976Z,3.92
2022-07-26T09:01:53.926Z,3.92
2022-07-26T09:04:34.570Z,4.00
2022-07-26T09:07:07.062Z,3.75
2022-07-26T09:09:38.439Z,3.63
2022-07-26T09:12:17.137Z,3.75
2022-07-26T09:14:46.737Z,3.70
2022-07-26T09:17:16.466Z,4.25
2022-07-26T09:19:45.588Z,4.10
2022-07-26T09:22:19.486Z,3.90
2022-07-26T09:24:51.312Z,3.90
2022-07-26T09:27:18.263Z,3.45
2022-07-26T09:29:46.333Z,3.70
2022-07-26T09:32:20.290Z,3.42
2022-07-26T09:34:54.361Z,3.10
2022-07-26T09:37:38.288Z,3.20
2022-07-26T09:40:07.023Z,3.95
2022-07-26T09:42:34.018Z,3.55
2022-07-26T09:45:02.456Z,3.50
2022-07-26T09:47:36.258Z,3.20
2022-07-26T09:50:18.597Z,3.40
2022-07-26T09:53:04.856Z,3.45
2022-07-26T09:55:40.686Z,3.40
2022-07-26T09:58:14.402Z,3.70
2022-07-26T10:00:41.296Z,4.03
2022-07-26T10:03:08.228Z,3.22
2022-07-26T10:05:35.986Z,3.53
2022-07-26T10:08:03.480Z,3.50
2022-07-26T10:10:50.569Z,2.78
2022-07-26T10:13:17.802Z,2.72
2022-07-26T10:15:46.720Z,1.55
2022-07-26T10:18:34.937Z,1.80
2022-07-26T10:21:21.708Z,1.80
2022-07-26T10:23:51.261Z,1.90
2022-07-26T10:26:33.205Z,2.22
2022-07-26T10:29:23.013Z,2.83
2022-07-26T10:31:56.090Z,2.72
2022-07-26T10:34:32.136Z,2.50
2022-07-26T10:37:00.100Z,2.60
2022-07-26T10:39:27.172Z,3.13
2022-07-26T10:42:03.200Z,2.42
2022-07-26T10:44:32.907Z,2.47
2022-07-26T10:47:01.707Z,2.33
2022-07-26T10:49:40.589Z,2.40
2022-07-26T10:52:13.152Z,2.22
2022-07-26T10:54:59.635Z,1.90
2022-07-26T10:57:33.137Z,1.77
2022-07-26T11:00:01.216Z,1.80
2022-07-26T11:02:35.819Z,1.45
2022-07-26T11:05:13.600Z,1.90
2022-07-26T11:07:59.674Z,2.20
2022-07-26T11:10:27.864Z,2.00
2022-07-26T11:13:02.263Z,1.92
2022-07-26T11:18:12.301Z,2.05
2022-07-26T11:20:42.590Z,2.10
2022-07-26T11:23:22.186Z,1.40
2022-07-26T11:26:07.400Z,1.45
2022-07-26T11:28:47.630Z,1.30
2022-07-26T11:31:15.259Z,1.10
2022-07-26T11:33:45.162Z,1.23
2022-07-26T11:36:14.466Z,1.08
2022-07-26T11:38:44.531Z,1.42
2022-07-26T11:41:11.757Z,1.13
2022-07-26T11:43:38.983Z,1.02
2022-07-26T11:46:07.504Z,1.20
2022-07-26T11:48:35.449Z,1.02
2022-07-26T11:51:34.688Z,1.20
2022-07-26T11:54:03.364Z,1.05
2022-07-26T11:56:31.531Z,0.90
2022-07-26T11:58:58.756Z,1.27
2022-07-26T12:01:27.222Z,1.23
2022-07-26T12:03:54.513Z,1.15
2022-07-26T12:06:25.571Z,0.90
2022-07-26T12:09:01.766Z,1.00
2022-07-26T12:11:37.880Z,1.20
2022-07-26T12:14:07.779Z,0.80
2022-07-26T12:16:47.869Z,0.90
2022-07-26T12:19:20.342Z,1.10
2022-07-26T12:21:53.477Z,1.00
2022-07-26T12:24:38.764Z,1.02
2022-07-26T12:27:26.095Z,1.42
2022-07-26T12:29:54.740Z,1.35
2022-07-26T12:32:22.974Z,1.20
2022-07-26T12:34:56.844Z,1.20
2022-07-26T12:37:28.955Z,1.00
2022-07-26T12:40:11.684Z,0.88
2022-07-26T12:42:39.957Z,0.90
2022-07-26T12:45:09.728Z,0.80
2022-07-26T12:47:37.834Z,0.70
2022-07-26T12:50:05.438Z,0.80
2022-07-26T12:52:33.755Z,0.93
2022-07-26T12:55:02.579Z,0.90
2022-07-26T12:57:29.330Z,0.80
2022-07-26T12:59:56.358Z,0.70
2022-07-26T13:02:24.280Z,0.85
2022-07-26T13:04:54.347Z,0.80
2022-07-26T13:07:23.387Z,0.98
2022-07-26T13:10:03.007Z,0.80
2022-07-26T13:12:37.189Z,0.70
2022-07-26T13:15:07.057Z,0.80
2022-07-26T13:17:33.642Z,1.10
2022-07-26T13:20:00.175Z,0.88
2022-07-26T13:22:30.957Z,0.82
2022-07-26T13:24:58.174Z,0.80
2022-07-26T13:27:35.930Z,0.95
2022-07-26T13:30:04.077Z,0.70
2022-07-26T13:32:32.748Z,0.73
2022-07-26T13:34:59.499Z,0.80
2022-07-26T13:37:27.115Z,0.80
2022-07-26T13:39:53.777Z,0.80
2022-07-26T13:42:22.621Z,0.70
2022-07-26T13:44:49.233Z,0.80
2022-07-26T13:47:16.503Z,0.73
2022-07-26T13:49:43.365Z,0.82
2022-07-26T13:52:15.311Z,0.73
2022-07-26T13:54:43.054Z,0.82
2022-07-26T13:57:09.815Z,0.77
2022-07-26T13:59:37.524Z,0.80
2022-07-26T14:02:05.151Z,0.63
2022-07-26T14:04:34.695Z,1.30
2022-07-26T14:07:01.330Z,2.10
2022-07-26T14:09:27.903Z,1.63
2022-07-26T14:11:55.987Z,1.48
2022-07-26T14:14:23.577Z,1.70
2022-07-26T14:16:50.760Z,1.42
2022-07-26T14:19:17.869Z,1.80
2022-07-26T14:21:51.579Z,1.60
2022-07-26T14:24:26.996Z,1.15
2022-07-26T14:26:58.437Z,1.27
2022-07-26T14:29:25.763Z,1.48
2022-07-26T14:31:52.568Z,0.82
2022-07-26T14:34:19.191Z,1.02
2022-07-26T14:36:45.828Z,1.30
2022-07-26T14:39:12.343Z,1.17
2022-07-26T14:41:38.929Z,1.00
2022-07-26T14:44:05.971Z,1.05
2022-07-26T14:46:32.954Z,0.80
2022-07-26T14:48:59.759Z,1.20
2022-07-26T14:51:27.573Z,1.13
2022-07-26T14:53:54.412Z,1.50
2022-07-26T14:56:21.183Z,1.88
2022-07-26T14:58:47.829Z,1.52
2022-07-26T15:01:14.613Z,2.00
2022-07-26T15:03:42.316Z,1.98
2022-07-26T15:06:09.196Z,1.63
2022-07-26T15:08:38.412Z,1.33
2022-07-26T15:11:08.286Z,0.98
2022-07-26T15:13:35.366Z,1.27
2022-07-26T15:16:02.125Z,1.10
2022-07-26T15:18:28.846Z,0.70
2022-07-26T15:20:55.444Z,1.02
2022-07-26T15:23:22.293Z,0.60
2022-07-26T15:25:48.991Z,0.70
2022-07-26T15:28:16.831Z,0.80
2022-07-26T15:30:43.815Z,1.20
2022-07-26T15:33:11.917Z,1.30
2022-07-26T15:35:40.636Z,1.27
2022-07-26T15:38:07.497Z,1.00
2022-07-26T15:40:34.177Z,1.10
2022-07-26T15:43:00.732Z,0.90
2022-07-26T15:45:30.113Z,1.10
2022-07-26T15:48:11.449Z,0.73
2022-07-26T15:50:48.746Z,0.93
2022-07-26T15:53:16.733Z,0.90
2022-07-26T15:55:43.260Z,1.08
2022-07-26T15:58:09.966Z,1.15
2022-07-26T16:00:36.641Z,0.77
2022-07-26T16:03:04.083Z,1.30
2022-07-26T16:05:35.238Z,1.40
2022-07-26T16:08:01.939Z,0.80
2022-07-26T16:10:28.572Z,1.23
2022-07-26T16:12:57.121Z,0.95
2022-07-26T16:15:25.010Z,1.00
2022-07-26T16:17:52.477Z,0.68
2022-07-26T16:20:21.154Z,0.82
2022-07-26T16:22:49.138Z,1.27
2022-07-26T16:25:16.247Z,1.23
2022-07-26T16:27:45.413Z,1.13
2022-07-26T16:30:15.515Z,1.25
2022-07-26T16:32:42.860Z,7.50
2022-07-26T16:35:10.895Z,14.27
2022-07-26T16:37:39.906Z,10.45
2022-07-26T16:40:12.716Z,25.48
2022-07-26T16:42:39.577Z,3.72
2022-07-26T16:45:07.129Z,13.57
2022-07-26T16:47:34.055Z,2.60
2022-07-26T16:50:01.038Z,2.15
2022-07-26T16:52:30.928Z,1.20
2022-07-26T16:54:58.098Z,1.77
2022-07-26T16:57:24.702Z,1.33
2022-07-26T16:59:51.422Z,1.50
2022-07-26T17:02:21.409Z,1.30
2022-07-26T17:04:48.291Z,1.25
2022-07-26T17:07:25.463Z,1.48
2022-07-26T17:09:54.966Z,1.60
2022-07-26T17:12:24.721Z,1.20
2022-07-26T17:14:51.958Z,1.30
2022-07-26T17:17:19.968Z,1.38
2022-07-26T17:19:51.817Z,1.10
2022-07-26T17:22:18.805Z,0.80
2022-07-26T17:24:47.023Z,1.02
2022-07-26T17:27:15.002Z,0.77
2022-07-26T17:29:42.883Z,0.88
2022-07-26T17:32:10.546Z,0.70
2022-07-26T17:34:39.735Z,0.73
2022-07-26T17:37:10.386Z,0.82
2022-07-26T17:39:52.640Z,1.08
2022-07-26T17:42:20.406Z,1.20
2022-07-26T17:44:47.067Z,1.17
2022-07-26T17:47:28.028Z,1.10
2022-07-26T17:52:50.984Z,1.67
2022-07-26T17:55:19.175Z,1.98
2022-07-26T17:57:47.269Z,1.77
2022-07-26T18:00:17.295Z,1.98
2022-07-26T18:02:45.083Z,2.42
2022-07-26T18:05:15.226Z,2.72
2022-07-26T18:07:42.215Z,2.47
2022-07-26T18:10:10.859Z,2.10
2022-07-26T18:12:37.419Z,2.28
2022-07-26T18:15:04.849Z,2.00
2022-07-26T18:17:32.660Z,2.60
2022-07-26T18:20:03.857Z,2.28
2022-07-26T18:22:31.353Z,2.25
2022-07-26T18:24:59.067Z,2.60
2022-07-26T18:27:28.220Z,2.90
2022-07-26T18:29:55.509Z,3.55
2022-07-26T18:32:24.089Z,3.78
2022-07-26T18:34:52.595Z,3.88
2022-07-26T18:37:20.445Z,3.88
2022-07-26T18:39:47.390Z,4.07
2022-07-26T18:42:15.561Z,3.90
2022-07-26T18:44:43.754Z,3.88
2022-07-26T18:47:12.481Z,3.33
2022-07-26T18:49:39.493Z,2.38
2022-07-26T18:52:11.902Z,2.97
2022-07-26T18:54:38.708Z,2.50
2022-07-26T18:57:05.368Z,2.33
2022-07-26T18:59:34.944Z,2.30
2022-07-26T19:02:01.907Z,2.10
2022-07-26T19:04:28.948Z,1.83
2022-07-26T19:06:57.083Z,1.92
2022-07-26T19:09:23.997Z,1.65
2022-07-26T19:11:50.811Z,1.98
2022-07-26T19:14:21.229Z,1.83
2022-07-26T19:16:51.307Z,1.55
2022-07-26T19:19:19.315Z,1.60
2022-07-26T19:21:49.434Z,1.63
2022-07-26T19:24:18.296Z,1.38
2022-07-26T19:26:45.168Z,1.85
2022-07-26T19:29:13.469Z,1.77
2022-07-26T19:31:43.655Z,2.05
2022-07-26T19:34:10.519Z,1.65
2022-07-26T19:36:37.291Z,1.80
2022-07-26T19:39:08.280Z,1.55
2022-07-26T19:41:37.074Z,1.60
2022-07-26T19:44:05.115Z,1.70
2022-07-26T19:46:32.721Z,1.77
2022-07-26T19:48:59.632Z,1.67
2022-07-26T19:51:27.667Z,1.85
2022-07-26T19:53:54.440Z,1.70
2022-07-26T19:56:21.154Z,1.30
2022-07-26T19:58:49.446Z,1.50
2022-07-26T20:01:17.803Z,1.77
2022-07-26T20:03:44.559Z,1.92
2022-07-26T20:06:11.318Z,1.58
2022-07-26T20:08:38.066Z,2.30
2022-07-26T20:11:04.697Z,1.75
2022-07-26T20:13:32.639Z,1.83
2022-07-26T20:16:06.335Z,1.95
2022-07-26T20:18:39.024Z,1.52
2022-07-26T20:21:06.130Z,1.80
2022-07-26T20:23:35.014Z,1.98
2022-07-26T20:26:01.701Z,1.80
2022-07-26T20:28:29.524Z,1.95
2022-07-26T20:30:56.244Z,1.65
2022-07-26T20:33:24.686Z,2.25
2022-07-26T20:35:56.321Z,1.67
2022-07-26T20:38:23.008Z,1.50
2022-07-26T20:40:49.730Z,1.80
2022-07-26T20:43:17.488Z,1.60
2022-07-26T20:45:44.865Z,1.25
2022-07-26T20:48:15.640Z,1.70
2022-07-26T20:50:42.261Z,1.70
2022-07-26T20:53:08.959Z,1.50
2022-07-26T20:55:37.674Z,2.17
2022-07-26T20:58:04.842Z,1.80
2022-07-26T21:00:33.767Z,1.70
2022-07-26T21:03:00.888Z,1.52
2022-07-26T21:05:32.154Z,1.48
2022-07-26T21:07:59.942Z,1.48
2022-07-26T21:10:29.942Z,1.30
2022-07-26T21:13:01.095Z,1.35
2022-07-26T21:15:28.445Z,1.80
2022-07-26T21:17:55.036Z,1.70
2022-07-26T21:20:21.589Z,1.40
2022-07-26T21:22:48.518Z,1.33
2022-07-26T21:25:15.328Z,1.45
2022-07-26T21:27:45.240Z,1.30
2022-07-26T21:30:12.098Z,1.40
2022-07-26T21:32:39.102Z,1.85
2022-07-26T21:35:05.975Z,1.20
2022-07-26T21:37:32.725Z,1.30
2022-07-26T21:40:00.813Z,0.93
2022-07-26T21:42:29.130Z,1.15
2022-07-26T21:44:55.832Z,1.38
2022-07-26T21:47:22.721Z,1.40
2022-07-26T21:49:49.543Z,1.15
2022-07-26T21:52:16.673Z,1.20
2022-07-26T21:54:43.835Z,1.17
2022-07-26T21:57:10.611Z,1.15
2022-07-26T21:59:37.222Z,1.10
2022-07-26T22:02:04.017Z,1.35
2022-07-26T22:04:32.023Z,1.85
2022-07-26T22:06:58.637Z,1.42
2022-07-26T22:09:27.347Z,1.20
2022-07-26T22:11:54.558Z,1.15
2022-07-26T22:14:21.935Z,1.15
2022-07-26T22:16:49.381Z,1.02
2022-07-26T22:19:16.280Z,1.20
2022-07-26T22:21:43.108Z,1.17
2022-07-26T22:24:09.770Z,1.65
2022-07-26T22:26:36.498Z,1.10
2022-07-26T22:29:09.026Z,1.33
2022-07-26T22:31:36.109Z,1.33
2022-07-26T22:34:04.418Z,1.25
2022-07-26T22:36:31.130Z,1.10
2022-07-26T22:38:57.763Z,1.10
2022-07-26T22:41:24.471Z,1.10
2022-07-26T22:43:53.397Z,1.17
2022-07-26T22:46:27.878Z,0.77
2022-07-26T22:48:56.420Z,1.10
2022-07-26T22:51:26.113Z,1.00
2022-07-26T22:53:53.044Z,1.10
2022-07-26T22:56:20.857Z,1.00
2022-07-26T22:58:49.717Z,1.38
2022-07-26T23:01:16.745Z,1.13
2022-07-26T23:03:44.419Z,1.10
2022-07-26T23:06:20.995Z,1.00
2022-07-26T23:08:58.521Z,1.35
2022-07-26T23:11:27.617Z,1.30
2022-07-26T23:13:58.971Z,0.98
2022-07-26T23:16:26.228Z,1.13
2022-07-26T23:18:53.654Z,1.20
2022-07-26T23:21:20.301Z,0.93
2022-07-26T23:23:49.771Z,1.27
2022-07-26T23:26:18.561Z,1.08
2022-07-26T23:28:45.148Z,1.15
2022-07-26T23:31:12.453Z,1.23
2022-07-26T23:33:51.977Z,1.20
2022-07-26T23:36:24.971Z,1.10
2022-07-26T23:38:52.135Z,1.27
2022-07-26T23:41:20.105Z,1.10
2022-07-26T23:43:48.369Z,1.63
2022-07-26T23:46:17.636Z,1.10
2022-07-26T23:48:46.765Z,1.35
2022-07-26T23:51:13.478Z,1.20
2022-07-26T23:53:41.327Z,1.20
2022-07-26T23:56:07.939Z,1.35
2022-07-26T23:58:34.530Z,1.00
